Time;durP1;ratioP1;P1;durP2;ratioP2;P2;SDS_P1;SDS_P2;PMS_P1;PMS_P2;Temp;Humidity;BMP_temperature;BMP_pressure;BME280_temperature;BME280_humidity;BME280_pressure;Samples;Min_cycle;Max_cycle;Signal;HPM_P1;HPM_P2
2021/04/18 00:00:31;;;;;;;11.33;4.93;;;5.00;99.90;4.00;96799.00;;;;5125334;27;20501;-66
2021/04/18 00:03:19;;;;;;;6.90;5.73;;;5.00;99.90;4.00;96791.00;;;;5127668;27;20423;-65
2021/04/18 00:06:07;;;;;;;9.77;6.20;;;5.10;99.90;4.00;96797.00;;;;5119548;27;21145;-67
2021/04/18 00:08:55;;;;;;;6.93;5.47;;;5.00;99.90;4.00;96790.00;;;;5123574;27;20926;-65
2021/04/18 00:11:43;;;;;;;7.13;5.00;;;5.00;99.90;4.00;96790.00;;;;5125254;27;20462;-66
2021/04/18 00:14:31;;;;;;;8.73;5.77;;;5.00;99.90;3.80;96774.00;;;;5126747;27;20423;-66
2021/04/18 00:17:20;;;;;;;7.20;5.53;;;5.00;99.90;3.80;96770.00;;;;5123858;27;20428;-67
2021/04/18 00:20:10;;;;;;;8.67;5.33;;;4.90;99.90;3.80;96775.00;;;;5123361;27;20499;-65
2021/04/18 00:22:58;;;;;;;7.03;5.63;;;4.90;99.90;3.60;96766.00;;;;5123368;27;20422;-66
2021/04/18 00:25:46;;;;;;;10.90;5.23;;;4.90;99.90;3.60;96786.00;;;;5120597;27;20962;-65
2021/04/18 00:28:34;;;;;;;7.83;6.07;;;4.80;99.90;3.60;96772.00;;;;5122980;27;20958;-64
2021/04/18 00:31:22;;;;;;;9.17;5.83;;;4.70;99.90;3.60;96762.00;;;;5126530;27;20438;-66
2021/04/18 00:34:10;;;;;;;6.17;5.53;;;4.70;99.90;3.70;96769.00;;;;5122653;27;20440;-66
2021/04/18 00:36:58;;;;;;;5.57;4.23;;;4.70;99.90;3.80;96769.00;;;;5120887;27;20423;-65
2021/04/18 00:39:46;;;;;;;7.67;4.93;;;4.70;99.90;3.70;96774.00;;;;5123017;27;20464;-65
2021/04/18 00:42:36;;;;;;;6.97;5.10;;;4.70;99.90;3.70;96771.00;;;;5121532;27;20412;-66
2021/04/18 00:45:24;;;;;;;8.07;5.30;;;4.80;99.90;3.80;96766.00;;;;5121980;27;20428;-66
2021/04/18 00:48:12;;;;;;;8.27;5.33;;;4.70;99.90;3.80;96767.00;;;;5122199;27;20428;-64
2021/04/18 00:51:01;;;;;;;6.57;5.93;;;4.80;99.90;3.80;96761.00;;;;5122290;27;20443;-66
2021/04/18 00:53:50;;;;;;;5.13;4.63;;;4.80;99.90;3.70;96768.00;;;;5125739;27;20420;-65
2021/04/18 00:56:38;;;;;;;8.10;5.43;;;4.80;99.90;3.70;96759.00;;;;5124140;27;20443;-65
2021/04/18 00:59:26;;;;;;;6.40;5.43;;;4.80;99.90;3.60;96750.00;;;;5122923;27;20412;-66
2021/04/18 01:02:13;;;;;;;6.30;5.40;;;4.80;99.90;3.50;96744.00;;;;5120568;27;20811;-66
2021/04/18 01:05:01;;;;;;;8.67;5.53;;;4.70;99.90;3.50;96740.00;;;;5121190;27;20905;-66
2021/04/18 01:07:50;;;;;;;6.43;5.70;;;4.70;99.90;3.40;96734.00;;;;5120351;27;20463;-66
2021/04/18 01:10:39;;;;;;;6.93;5.77;;;4.60;99.90;3.50;96724.00;;;;5122132;27;20451;-67
2021/04/18 01:13:27;;;;;;;5.67;5.00;;;4.60;99.90;3.50;96727.00;;;;5124833;27;20428;-66
2021/04/18 01:16:15;;;;;;;8.07;5.73;;;4.60;99.90;3.50;96722.00;;;;5124490;27;20424;-66
2021/04/18 01:19:03;;;;;;;7.27;5.30;;;4.60;99.90;3.60;96722.00;;;;5122432;27;20809;-67
2021/04/18 01:21:52;;;;;;;7.23;5.57;;;4.60;99.90;3.60;96710.00;;;;5123033;27;21018;-66
2021/04/18 01:24:40;;;;;;;8.53;5.40;;;4.60;99.90;3.70;96711.00;;;;5123109;27;20979;-65
2021/04/18 01:27:28;;;;;;;6.33;5.53;;;4.60;99.90;3.60;96716.00;;;;5123626;27;21016;-66
2021/04/18 01:30:19;;;;;;;7.37;5.37;;;4.70;99.90;3.60;96705.00;;;;5120877;27;20451;-66
2021/04/18 01:33:06;;;;;;;10.37;5.37;;;4.70;99.90;3.50;96713.00;;;;5122543;27;20430;-65
2021/04/18 01:35:55;;;;;;;6.70;5.10;;;4.60;99.90;3.20;96708.00;;;;5120191;27;20436;-65
2021/04/18 01:38:45;;;;;;;6.87;5.57;;;4.60;99.90;3.30;96719.00;;;;5121316;27;20943;-66
2021/04/18 01:41:33;;;;;;;13.90;10.47;;;4.50;99.90;3.40;96716.00;;;;5121691;27;20467;-66
2021/04/18 01:44:21;;;;;;;11.07;7.97;;;4.50;99.90;3.40;96714.00;;;;5123156;27;20922;-66
2021/04/18 01:47:09;;;;;;;7.93;6.80;;;4.50;99.90;3.40;96717.00;;;;5124166;27;20531;-65
2021/04/18 01:49:57;;;;;;;6.43;5.80;;;4.40;99.90;3.40;96709.00;;;;5122313;27;20416;-64
2021/04/18 01:52:46;;;;;;;6.10;5.50;;;4.40;99.90;3.30;96705.00;;;;5118856;27;20424;-66
2021/04/18 01:55:35;;;;;;;6.20;5.60;;;4.40;99.90;3.30;96697.00;;;;5120770;27;20420;-66
2021/04/18 01:58:23;;;;;;;7.30;6.00;;;4.40;99.90;3.20;96700.00;;;;5124347;27;20432;-66
2021/04/18 02:01:11;;;;;;;8.87;6.60;;;4.40;99.90;3.30;96698.00;;;;5120253;27;20465;-65
2021/04/18 02:04:00;;;;;;;6.20;4.93;;;4.40;99.90;3.30;96697.00;;;;5123219;27;20432;-65
2021/04/18 02:06:48;;;;;;;8.77;6.10;;;4.30;99.90;3.20;96703.00;;;;5121984;27;20546;-65
2021/04/18 02:09:37;;;;;;;6.47;5.47;;;4.40;99.90;3.10;96703.00;;;;5118800;27;20431;-66
2021/04/18 02:12:26;;;;;;;8.07;6.50;;;4.10;99.90;3.10;96700.00;;;;5118397;27;20954;-65
2021/04/18 02:15:15;;;;;;;9.63;6.53;;;4.20;99.90;3.10;96704.00;;;;5120606;27;20944;-66
2021/04/18 02:18:03;;;;;;;9.53;6.47;;;4.20;99.90;3.00;96705.00;;;;5121992;27;20428;-65
2021/04/18 02:20:51;;;;;;;8.77;6.30;;;4.20;99.90;2.80;96706.00;;;;5119197;27;20468;-66
2021/04/18 02:23:39;;;;;;;7.33;5.90;;;4.10;99.90;2.80;96696.00;;;;5122966;27;20419;-66
2021/04/18 02:26:27;;;;;;;8.13;6.20;;;4.00;99.90;2.80;96696.00;;;;5123030;27;20438;-67
2021/04/18 02:29:16;;;;;;;9.60;7.00;;;4.00;99.90;2.90;96706.00;;;;5121699;27;20428;-66
2021/04/18 02:32:05;;;;;;;8.00;6.40;;;4.00;99.90;2.90;96707.00;;;;5120910;27;20447;-66
2021/04/18 02:34:53;;;;;;;12.93;7.50;;;4.00;99.90;2.90;96706.00;;;;5122904;27;20446;-67
2021/04/18 02:37:41;;;;;;;6.57;5.90;;;4.00;99.90;2.70;96699.00;;;;5114924;27;20433;-65
2021/04/18 02:40:29;;;;;;;9.37;7.53;;;3.90;99.90;2.70;96693.00;;;;5120822;27;20460;-66
2021/04/18 02:43:17;;;;;;;10.40;6.97;;;3.90;99.90;2.80;96691.00;;;;5114899;27;20424;-66
2021/04/18 02:46:05;;;;;;;8.70;7.33;;;3.90;99.90;2.80;96691.00;;;;5122587;27;20412;-66
2021/04/18 02:48:54;;;;;;;7.93;5.47;;;3.90;99.90;3.00;96696.00;;;;5121669;28;20420;-65
2021/04/18 02:51:42;;;;;;;8.40;6.53;;;3.90;99.90;3.00;96682.00;;;;5119417;28;20433;-67
2021/04/18 02:54:30;;;;;;;8.70;6.03;;;3.90;99.90;2.80;96685.00;;;;5114354;28;20419;-66
2021/04/18 02:57:18;;;;;;;9.07;6.93;;;4.00;99.90;2.70;96676.00;;;;5121139;28;20428;-66
2021/04/18 03:00:08;;;;;;;10.07;7.17;;;3.90;99.90;2.80;96677.00;;;;5121185;28;20459;-66
2021/04/18 03:02:56;;;;;;;8.57;6.37;;;3.90;99.90;2.80;96682.00;;;;5119456;27;20432;-67
2021/04/18 03:05:44;;;;;;;8.23;6.03;;;3.90;99.90;2.70;96680.00;;;;5118280;27;20420;-65
2021/04/18 03:08:32;;;;;;;7.13;6.40;;;3.90;99.90;2.80;96683.00;;;;5120874;28;20423;-68
2021/04/18 03:11:20;;;;;;;7.80;7.00;;;3.80;99.90;2.80;96670.00;;;;5117975;28;20451;-67
2021/04/18 03:14:08;;;;;;;6.03;5.43;;;3.90;99.90;2.80;96675.00;;;;5122171;28;21538;-67
2021/04/18 03:16:56;;;;;;;11.23;6.57;;;3.90;99.90;2.80;96674.00;;;;5123617;28;20428;-66
2021/04/18 03:19:44;;;;;;;7.23;5.67;;;3.90;99.90;2.90;96677.00;;;;5121479;28;20424;-66
2021/04/18 03:22:32;;;;;;;8.27;6.50;;;3.90;99.90;2.90;96674.00;;;;5122263;28;20448;-67
2021/04/18 03:25:20;;;;;;;8.30;6.50;;;3.90;99.90;2.90;96671.00;;;;5121819;28;20432;-67
2021/04/18 03:28:08;;;;;;;7.13;5.77;;;3.90;99.90;2.90;96672.00;;;;5120414;28;20428;-66
2021/04/18 03:30:56;;;;;;;8.67;6.13;;;3.90;99.90;3.00;96672.00;;;;5122507;28;21036;-67
2021/04/18 03:33:45;;;;;;;6.83;5.93;;;3.90;99.90;3.00;96672.00;;;;5120542;28;21039;-67
2021/04/18 03:36:34;;;;;;;7.37;6.63;;;4.00;99.90;3.00;96671.00;;;;5123275;28;20435;-65
2021/04/18 03:39:22;;;;;;;8.87;6.10;;;4.00;99.90;3.00;96673.00;;;;5122907;28;20435;-67
2021/04/18 03:42:11;;;;;;;10.27;6.50;;;4.00;99.90;2.90;96672.00;;;;5122656;28;20809;-66
2021/04/18 03:44:59;;;;;;;8.47;6.33;;;4.00;99.90;2.90;96661.00;;;;5120709;28;20428;-66
2021/04/18 03:47:46;;;;;;;7.50;6.07;;;4.00;99.90;2.80;96666.00;;;;5121150;28;20424;-67
2021/04/18 03:50:34;;;;;;;9.03;7.80;;;4.00;99.90;2.90;96668.00;;;;5122444;28;20499;-66
2021/04/18 03:53:23;;;;;;;8.07;6.30;;;4.00;99.90;2.90;96672.00;;;;5115041;27;20951;-66
2021/04/18 03:56:13;;;;;;;11.63;6.97;;;4.00;99.90;2.80;96675.00;;;;5110236;27;20444;-66
2021/04/18 03:59:01;;;;;;;8.10;6.47;;;4.00;99.90;2.90;96667.00;;;;5115609;27;20436;-64
2021/04/18 04:01:49;;;;;;;9.17;7.30;;;4.00;99.90;2.80;96673.00;;;;5115982;27;20475;-67
2021/04/18 04:04:37;;;;;;;8.53;7.40;;;3.90;99.90;2.80;96665.00;;;;5122686;27;20455;-67
2021/04/18 04:07:25;;;;;;;8.50;6.37;;;3.90;99.90;2.90;96672.00;;;;5106475;27;20443;-68
2021/04/18 04:10:14;;;;;;;9.13;6.63;;;3.90;99.90;3.00;96679.00;;;;5117835;27;20455;-67
2021/04/18 04:13:02;;;;;;;9.23;6.83;;;4.00;99.90;3.00;96673.00;;;;5115146;27;20423;-66
2021/04/18 04:15:50;;;;;;;10.37;6.40;;;4.00;99.90;3.00;96681.00;;;;5113447;27;20455;-67
2021/04/18 04:18:39;;;;;;;7.30;6.23;;;4.00;99.90;3.10;96669.00;;;;5113690;27;20471;-66
2021/04/18 04:21:27;;;;;;;8.47;6.63;;;4.10;99.90;3.10;96687.00;;;;5117624;27;20477;-66
2021/04/18 04:24:14;;;;;;;7.73;6.07;;;4.10;99.90;3.10;96671.00;;;;5112267;27;20436;-67
2021/04/18 04:27:04;;;;;;;8.70;7.07;;;4.10;99.90;3.10;96689.00;;;;5113555;27;20949;-67
2021/04/18 04:29:52;;;;;;;7.43;6.07;;;4.10;99.90;3.10;96675.00;;;;5114221;27;20432;-68
2021/04/18 04:32:40;;;;;;;8.43;7.13;;;4.10;99.90;3.10;96681.00;;;;5114542;27;21111;-67
2021/04/18 04:35:28;;;;;;;9.80;5.97;;;4.10;99.90;3.20;96674.00;;;;5113288;27;20943;-66
2021/04/18 04:38:16;;;;;;;6.43;5.63;;;4.20;99.90;3.20;96672.00;;;;5113712;27;20959;-66
2021/04/18 04:41:04;;;;;;;7.87;7.03;;;4.20;99.90;3.20;96676.00;;;;5115050;27;20476;-64
2021/04/18 04:43:53;;;;;;;7.93;5.83;;;4.20;99.90;3.30;96671.00;;;;5113257;27;20424;-66
2021/04/18 04:46:41;;;;;;;9.50;6.90;;;4.20;99.90;3.30;96670.00;;;;5113188;27;20441;-65
2021/04/18 04:49:29;;;;;;;12.50;8.40;;;4.20;99.90;3.30;96681.00;;;;5114190;27;20444;-64
2021/04/18 04:52:17;;;;;;;10.97;6.67;;;4.30;99.90;3.30;96685.00;;;;5113610;27;20452;-66
2021/04/18 04:55:06;;;;;;;7.70;6.37;;;4.30;99.90;3.30;96685.00;;;;5112820;27;20953;-64
2021/04/18 04:57:54;;;;;;;10.37;7.33;;;4.30;99.90;3.30;96677.00;;;;5114186;27;20815;-67
2021/04/18 05:00:43;;;;;;;8.20;6.77;;;4.30;99.90;3.30;96692.00;;;;5114810;27;20476;-65
2021/04/18 05:03:31;;;;;;;7.63;6.40;;;4.30;99.90;3.40;96683.00;;;;5105714;28;20443;-66
2021/04/18 05:06:20;;;;;;;10.23;7.33;;;4.40;99.90;3.50;96677.00;;;;5105648;27;20429;-67
2021/04/18 05:09:08;;;;;;;10.17;7.53;;;4.40;99.90;3.50;96687.00;;;;5118302;27;20462;-67
2021/04/18 05:11:56;;;;;;;10.77;6.30;;;4.40;99.90;3.60;96687.00;;;;5097110;28;20449;-66
2021/04/18 05:14:44;;;;;;;10.53;7.40;;;4.50;99.90;3.50;96690.00;;;;5117803;27;20433;-65
2021/04/18 05:17:33;;;;;;;8.93;7.10;;;4.50;99.90;3.60;96690.00;;;;5119063;27;20432;-67
2021/04/18 05:20:21;;;;;;;9.93;7.70;;;4.50;99.90;3.60;96685.00;;;;5118427;27;20447;-67
2021/04/18 05:23:09;;;;;;;8.37;7.07;;;4.60;99.90;3.70;96694.00;;;;5116796;27;20809;-65
2021/04/18 05:25:57;;;;;;;11.77;8.53;;;4.60;99.90;3.70;96686.00;;;;5118795;27;20432;-66
2021/04/18 05:28:46;;;;;;;11.50;7.83;;;4.60;99.90;3.70;96690.00;;;;5085086;28;20442;-66
2021/04/18 05:31:34;;;;;;;11.70;7.33;;;4.70;99.90;3.70;96701.00;;;;5093803;28;20456;-65
2021/04/18 05:34:22;;;;;;;9.53;8.13;;;4.70;99.90;3.80;96694.00;;;;5097825;28;20778;-65
2021/04/18 05:37:10;;;;;;;12.47;7.93;;;4.70;99.90;3.70;96699.00;;;;5087702;28;20441;-67
2021/04/18 05:39:58;;;;;;;9.67;7.77;;;4.70;99.90;3.70;96694.00;;;;5085053;28;20438;-65
2021/04/18 05:42:46;;;;;;;10.60;8.13;;;4.70;99.90;3.80;96703.00;;;;5087272;28;20425;-65
2021/04/18 05:45:34;;;;;;;11.17;7.57;;;4.70;99.90;3.70;96698.00;;;;5086207;28;20422;-65
2021/04/18 05:48:22;;;;;;;8.57;7.60;;;4.70;99.90;3.70;96701.00;;;;5090162;28;20428;-66
2021/04/18 05:51:12;;;;;;;8.93;6.67;;;4.70;99.90;3.70;96706.00;;;;5088269;28;20861;-65
2021/04/18 05:53:59;;;;;;;8.33;7.17;;;5.50;99.90;3.90;96714.00;;;;5102939;28;20443;-67
2021/04/18 05:56:47;;;;;;;9.37;7.90;;;4.80;99.90;3.80;96712.00;;;;5093350;28;20437;-66
2021/04/18 05:59:35;;;;;;;11.30;7.43;;;4.80;99.90;3.80;96710.00;;;;5088357;28;20434;-67
2021/04/18 06:02:23;;;;;;;9.43;7.27;;;4.80;99.90;3.90;96712.00;;;;5085357;28;20461;-66
2021/04/18 06:05:12;;;;;;;10.70;7.43;;;4.80;99.90;4.00;96719.00;;;;5096025;28;20793;-66
2021/04/18 06:08:01;;;;;;;11.87;8.30;;;4.90;99.90;4.00;96713.00;;;;5101190;28;20422;-65
2021/04/18 06:10:48;;;;;;;10.43;7.57;;;4.90;99.90;3.90;96721.00;;;;5097683;28;20460;-66
2021/04/18 06:13:36;;;;;;;10.90;7.37;;;4.90;99.90;4.00;96718.00;;;;5086724;28;20429;-66
2021/04/18 06:16:25;;;;;;;9.73;8.30;;;4.90;99.90;4.10;96718.00;;;;5093169;28;20429;-66
2021/04/18 06:19:12;;;;;;;10.67;8.00;;;5.00;99.90;4.10;96720.00;;;;5088436;28;20422;-67
2021/04/18 06:22:00;;;;;;;11.80;8.40;;;5.00;99.90;4.10;96717.00;;;;5089002;28;20480;-65
2021/04/18 06:24:49;;;;;;;11.60;8.10;;;5.10;99.90;4.20;96715.00;;;;5097662;28;20459;-68
2021/04/18 06:27:37;;;;;;;10.57;7.63;;;5.10;99.90;4.30;96727.00;;;;5086503;28;20437;-67
2021/04/18 06:30:25;;;;;;;12.33;8.33;;;5.20;99.90;4.20;96718.00;;;;5086269;28;21141;-67
2021/04/18 06:33:13;;;;;;;10.17;7.90;;;5.20;99.90;4.30;96723.00;;;;5091517;28;20444;-67
2021/04/18 06:36:01;;;;;;;10.23;8.20;;;5.20;99.90;4.30;96714.00;;;;5098646;28;20432;-66
2021/04/18 06:38:49;;;;;;;9.53;7.00;;;5.20;99.90;4.30;96714.00;;;;5085405;28;20552;-66
2021/04/18 06:41:39;;;;;;;8.73;7.07;;;5.30;99.90;4.40;96726.00;;;;5084850;28;21018;-67
2021/04/18 06:44:28;;;;;;;12.40;7.60;;;5.30;99.90;4.50;96722.00;;;;5083806;28;20433;-65
2021/04/18 06:47:16;;;;;;;11.20;7.83;;;5.40;99.90;4.60;96723.00;;;;5084916;28;20429;-67
2021/04/18 06:50:06;;;;;;;8.73;7.10;;;5.40;99.90;4.70;96718.00;;;;5097436;28;20904;-66
2021/04/18 06:52:54;;;;;;;12.73;9.53;;;5.50;99.90;4.80;96715.00;;;;5102507;28;20433;-67
2021/04/18 06:55:42;;;;;;;8.67;7.37;;;5.60;99.90;4.80;96716.00;;;;5096702;28;20813;-66
2021/04/18 06:58:31;;;;;;;9.47;6.50;;;5.60;99.90;4.90;96719.00;;;;5103820;28;20444;-66
2021/04/18 07:01:19;;;;;;;11.20;7.47;;;5.70;99.90;4.90;96720.00;;;;5088466;28;20492;-66
2021/04/18 07:04:16;;;;;;;9.50;7.80;;;5.70;99.90;5.00;96722.00;;;;5098364;28;20194;-65
2021/04/18 07:07:04;;;;;;;9.33;7.40;;;5.80;99.90;5.20;96719.00;;;;5093366;28;20194;-65
2021/04/18 07:09:53;;;;;;;11.03;6.93;;;5.90;99.90;5.20;96730.00;;;;5102535;28;20198;-65
2021/04/18 07:12:42;;;;;;;8.43;7.13;;;6.00;99.90;5.20;96716.00;;;;5101951;28;20701;-66
2021/04/18 07:15:39;;;;;;;8.73;6.20;;;6.00;99.90;5.30;96724.00;;;;5083600;28;20195;-66
2021/04/18 07:18:42;;;;;;;12.90;8.43;;;6.10;99.90;5.40;96724.00;;;;5086120;28;20585;-66
2021/04/18 07:21:45;;;;;;;9.67;7.40;;;6.20;99.90;5.40;96721.00;;;;5084638;28;20227;-66
2021/04/18 07:24:48;;;;;;;7.87;7.07;;;6.30;99.90;5.50;96722.00;;;;5089180;28;20209;-66
2021/04/18 07:27:47;;;;;;;10.37;7.47;;;6.30;99.90;5.50;96726.00;;;;5085746;28;20673;-65
2021/04/18 07:30:49;;;;;;;10.83;7.67;;;6.30;99.90;5.60;96717.00;;;;5094904;28;20611;-66
2021/04/18 07:34:06;;;;;;;12.33;8.43;;;6.40;99.90;5.70;96725.00;;;;5107090;28;20206;-67
2021/04/18 07:37:08;;;;;;;12.37;9.33;;;6.40;99.90;5.80;96728.00;;;;5104755;28;20200;-66
2021/04/18 07:39:58;;;;;;;11.83;8.53;;;6.50;99.90;5.80;96724.00;;;;5098850;28;20198;-67
2021/04/18 07:42:46;;;;;;;12.93;9.60;;;6.60;99.90;5.90;96728.00;;;;5100689;28;20225;-67
2021/04/18 07:45:35;;;;;;;11.17;8.47;;;6.70;99.90;6.00;96730.00;;;;5094699;28;20203;-66
2021/04/18 07:48:24;;;;;;;14.00;9.17;;;6.80;99.90;6.10;96730.00;;;;5094113;28;20210;-66
2021/04/18 07:51:12;;;;;;;10.13;8.60;;;6.80;99.90;6.30;96732.00;;;;5099748;28;20219;-66
2021/04/18 07:54:00;;;;;;;12.53;9.87;;;6.90;99.90;6.30;96736.00;;;;5097441;28;20222;-65
2021/04/18 07:56:50;;;;;;;11.17;9.37;;;7.00;99.90;6.40;96742.00;;;;5095420;28;20247;-66
2021/04/18 07:59:39;;;;;;;14.03;9.63;;;7.10;99.90;6.50;96739.00;;;;5097895;28;20214;-67
2021/04/18 08:02:27;;;;;;;13.50;8.77;;;7.20;99.90;6.70;96745.00;;;;5089432;28;20238;-67
2021/04/18 08:05:18;;;;;;;12.90;9.43;;;7.30;99.90;6.70;96736.00;;;;5102128;28;20194;-66
2021/04/18 08:08:08;;;;;;;11.83;9.17;;;7.40;99.90;6.90;96745.00;;;;5112416;27;20214;-66
2021/04/18 08:11:09;;;;;;;12.07;10.13;;;7.50;99.90;7.00;96748.00;;;;5099375;28;20718;-66
2021/04/18 08:13:57;;;;;;;13.30;9.60;;;7.60;99.90;7.30;96747.00;;;;5105263;28;20190;-64
2021/04/18 08:17:04;;;;;;;11.03;8.63;;;7.80;99.90;7.60;96736.00;;;;5101738;28;20199;-65
2021/04/18 08:19:58;;;;;;;11.53;8.97;;;8.00;99.90;7.70;96736.00;;;;5084611;28;20216;-65
2021/04/18 08:23:06;;;;;;;12.93;8.40;;;8.20;99.90;8.00;96732.00;;;;5093706;28;20227;-65
2021/04/18 08:26:09;;;;;;;11.33;9.43;;;8.40;99.90;8.40;96734.00;;;;5087794;28;20206;-66
2021/04/18 08:29:13;;;;;;;13.07;10.27;;;8.70;99.90;8.60;96733.00;;;;5087087;28;20209;-65
2021/04/18 08:32:11;;;;;;;8.70;7.70;;;9.00;99.90;8.90;96720.00;;;;5088099;28;20227;-66
2021/04/18 08:35:12;;;;;;;10.20;8.20;;;9.20;99.90;9.20;96729.00;;;;5086593;28;20211;-67
2021/04/18 08:38:22;;;;;;;11.77;8.40;;;9.40;99.90;9.40;96726.00;;;;5098651;28;20198;-67
2021/04/18 08:41:13;;;;;;;9.33;7.70;;;9.60;99.90;9.30;96726.00;;;;5106600;28;20618;-65
2021/04/18 08:44:16;;;;;;;10.57;8.13;;;9.80;99.90;9.10;96732.00;;;;5109021;27;20700;-66
2021/04/18 08:47:07;;;;;;;9.80;7.20;;;9.90;99.90;9.30;96748.00;;;;5107425;28;20213;-65
2021/04/18 08:49:57;;;;;;;9.63;7.93;;;9.90;99.90;9.30;96748.00;;;;5092064;28;20203;-66
2021/04/18 08:52:45;;;;;;;8.43;7.03;;;9.90;99.40;9.00;96750.00;;;;5098849;28;20208;-66
2021/04/18 08:55:34;;;;;;;8.83;7.27;;;9.90;97.70;8.80;96739.00;;;;5098844;28;20200;-66
2021/04/18 08:58:37;;;;;;;8.60;6.67;;;9.80;94.90;8.70;96741.00;;;;5088719;28;20208;-67
2021/04/18 09:01:25;;;;;;;10.70;6.87;;;9.70;94.20;8.90;96735.00;;;;5090337;28;20237;-66
2021/04/18 09:04:13;;;;;;;6.80;6.10;;;9.70;94.10;8.80;96736.00;;;;5086076;28;20210;-67
2021/04/18 09:07:02;;;;;;;7.63;6.50;;;9.60;93.40;8.90;96740.00;;;;5087769;28;20215;-66
2021/04/18 09:09:50;;;;;;;8.53;6.10;;;9.60;93.80;9.00;96750.00;;;;5093093;28;20211;-67
2021/04/18 09:12:39;;;;;;;5.07;4.57;;;9.70;93.20;8.70;96734.00;;;;5087203;28;20269;-68
2021/04/18 09:15:32;;;;;;;5.43;4.20;;;9.70;89.80;9.30;96729.00;;;;5087932;28;20203;-66
2021/04/18 09:18:23;;;;;;;7.30;4.67;;;9.80;90.80;9.70;96734.00;;;;5088435;28;20206;-67
2021/04/18 09:21:15;;;;;;;4.03;3.63;;;10.00;91.00;10.00;96732.00;;;;5079884;28;20227;-66
2021/04/18 09:24:03;;;;;;;4.60;3.60;;;10.20;90.70;10.10;96730.00;;;;5091951;28;20205;-67
2021/04/18 09:27:01;;;;;;;5.60;4.27;;;10.40;88.40;10.00;96734.00;;;;5093690;28;20203;-67
2021/04/18 09:29:52;;;;;;;4.10;3.60;;;10.60;84.40;9.70;96724.00;;;;5087212;28;20203;-67
2021/04/18 09:32:44;;;;;;;5.40;4.23;;;10.60;79.80;9.80;96716.00;;;;5105182;28;20203;-67
2021/04/18 09:35:32;;;;;;;7.17;4.70;;;10.60;80.50;10.00;96726.00;;;;5100458;28;20260;-65
2021/04/18 09:38:20;;;;;;;4.57;3.77;;;10.60;77.90;10.00;96721.00;;;;5085322;28;20203;-66
2021/04/18 09:41:10;;;;;;;3.93;3.47;;;10.70;78.00;10.20;96720.00;;;;5091389;28;20223;-66
2021/04/18 09:43:59;;;;;;;11.13;10.00;;;10.80;77.60;10.20;96719.00;;;;5096883;28;20206;-67
2021/04/18 09:46:47;;;;;;;14.43;12.97;;;10.80;78.40;10.00;96724.00;;;;5098604;28;20209;-66
2021/04/18 09:49:56;;;;;;;4.40;4.00;;;10.80;76.40;9.90;96715.00;;;;5099674;27;20199;-66
2021/04/18 09:52:44;;;;;;;5.90;4.10;;;10.80;75.50;10.30;96719.00;;;;5094543;28;20218;-67
2021/04/18 09:55:32;;;;;;;4.13;3.53;;;10.80;76.90;10.30;96714.00;;;;5092269;28;20217;-67
2021/04/18 09:58:27;;;;;;;4.57;3.40;;;10.90;75.60;10.50;96701.00;;;;5098025;27;20219;-66
2021/04/18 10:01:24;;;;;;;4.30;3.00;;;11.10;73.70;10.80;96714.00;;;;5098160;28;20218;-68
2021/04/18 10:04:28;;;;;;;3.93;3.03;;;11.20;73.30;10.90;96709.00;;;;5099056;28;20201;-66
2021/04/18 10:07:30;;;;;;;3.57;2.33;;;11.30;73.00;11.00;96718.00;;;;5099181;28;20234;-66
2021/04/18 10:10:32;;;;;;;3.53;2.83;;;11.50;71.80;11.10;96716.00;;;;5098935;27;20229;-66
2021/04/18 10:13:41;;;;;;;4.17;2.90;;;11.50;70.80;11.20;96716.00;;;;5098961;28;20576;-66
2021/04/18 10:16:41;;;;;;;3.40;2.90;;;11.70;71.00;10.90;96713.00;;;;5099251;28;20202;-67
2021/04/18 10:19:30;;;;;;;3.93;3.07;;;11.70;68.30;10.50;96709.00;;;;5097999;28;20232;-66
2021/04/18 10:22:18;;;;;;;2.87;2.60;;;11.60;67.70;10.20;96706.00;;;;5097394;28;20222;-66
2021/04/18 10:25:10;;;;;;;4.07;2.90;;;11.40;67.20;10.50;96708.00;;;;5099085;28;20292;-65
2021/04/18 10:27:58;;;;;;;4.40;3.33;;;11.40;67.70;10.20;96701.00;;;;5101357;27;20221;-66
2021/04/18 10:30:47;;;;;;;3.87;3.00;;;11.30;67.50;10.40;96705.00;;;;5096497;28;20250;-65
2021/04/18 10:33:37;;;;;;;3.50;2.67;;;11.30;68.00;10.70;96708.00;;;;5098918;28;20196;-66
2021/04/18 10:36:28;;;;;;;3.13;2.43;;;11.30;68.40;10.80;96710.00;;;;5103799;28;20737;-67
2021/04/18 10:39:17;;;;;;;2.63;2.43;;;11.40;67.90;10.90;96708.00;;;;5096599;28;20203;-66
2021/04/18 10:42:06;;;;;;;3.17;2.87;;;11.40;67.90;10.80;96709.00;;;;5099800;28;20697;-66
2021/04/18 10:44:54;;;;;;;3.10;2.80;;;11.50;68.70;10.90;96710.00;;;;5086861;28;20204;-66
2021/04/18 10:47:41;;;;;;;2.70;2.50;;;11.50;68.70;10.70;96704.00;;;;5093927;28;20210;-66
2021/04/18 10:50:29;;;;;;;2.90;2.50;;;11.50;67.80;10.60;96717.00;;;;5118578;28;20222;-65
2021/04/18 10:53:19;;;;;;;3.30;2.87;;;11.50;67.50;10.30;96710.00;;;;5101184;28;20213;-67
2021/04/18 10:56:13;;;;;;;4.07;2.40;;;11.50;65.60;10.40;96695.00;;;;5103429;28;20669;-66
2021/04/18 10:59:02;;;;;;;2.60;2.40;;;11.30;65.80;10.80;96699.00;;;;5103070;28;20225;-66
2021/04/18 11:01:51;;;;;;;3.93;2.57;;;11.40;67.40;11.00;96698.00;;;;5102423;28;20230;-66
2021/04/18 11:04:39;;;;;;;3.97;2.80;;;11.50;68.30;10.90;96694.00;;;;5106332;28;20983;-66
2021/04/18 11:07:27;;;;;;;2.53;2.33;;;11.60;67.10;11.10;96699.00;;;;5104682;28;20210;-66
2021/04/18 11:10:17;;;;;;;2.50;2.17;;;11.60;67.00;10.80;96696.00;;;;5102710;28;20234;-66
2021/04/18 11:13:04;;;;;;;2.97;2.20;;;11.70;66.30;11.00;96693.00;;;;5105580;27;20195;-65
2021/04/18 11:15:52;;;;;;;4.00;2.83;;;11.70;66.40;11.20;96698.00;;;;5096422;28;20199;-69
2021/04/18 11:18:40;;;;;;;2.87;2.30;;;11.80;67.40;11.20;96702.00;;;;5105947;28;20214;-69
2021/04/18 11:21:29;;;;;;;2.20;1.97;;;11.80;66.90;10.70;96700.00;;;;5106746;28;20256;-68
2021/04/18 11:24:17;;;;;;;3.47;2.73;;;11.70;64.70;10.50;96699.00;;;;5106402;28;20616;-68
2021/04/18 11:27:06;;;;;;;2.80;2.50;;;11.60;64.90;10.20;96699.00;;;;5107190;28;20666;-68
2021/04/18 11:29:54;;;;;;;2.87;2.30;;;11.60;65.50;10.40;96700.00;;;;5089446;28;20615;-68
2021/04/18 11:32:42;;;;;;;3.07;2.23;;;11.30;66.50;10.30;96697.00;;;;5089368;28;20199;-68
2021/04/18 11:35:30;;;;;;;2.97;2.17;;;11.20;66.50;10.30;96700.00;;;;5098808;28;20590;-68
2021/04/18 11:38:18;;;;;;;2.93;2.50;;;11.10;66.20;10.60;96693.00;;;;5094660;28;20203;-68
2021/04/18 11:41:06;;;;;;;3.90;2.50;;;11.20;66.80;10.90;96694.00;;;;5098074;28;20233;-67
2021/04/18 11:43:55;;;;;;;4.03;2.43;;;11.30;67.40;10.80;96695.00;;;;5089199;28;20204;-67
2021/04/18 11:46:44;;;;;;;3.80;2.60;;;11.40;66.80;10.60;96694.00;;;;5103014;28;20229;-68
2021/04/18 11:49:34;;;;;;;3.20;2.67;;;11.40;66.10;10.90;96690.00;;;;5106732;28;20672;-67
2021/04/18 11:52:22;;;;;;;3.10;2.50;;;11.40;66.70;10.70;96690.00;;;;5097570;28;20206;-68
2021/04/18 11:55:13;;;;;;;2.37;2.17;;;11.50;65.80;10.90;96697.00;;;;5103040;28;20210;-68
2021/04/18 11:58:01;;;;;;;2.47;2.03;;;11.50;66.20;11.00;96694.00;;;;5094632;28;20206;-68
2021/04/18 12:00:49;;;;;;;2.70;2.40;;;11.60;66.80;10.90;96697.00;;;;5094416;27;20227;-67
2021/04/18 12:03:37;;;;;;;2.33;2.13;;;11.60;66.20;10.80;96697.00;;;;5106971;28;20646;-69
2021/04/18 12:06:26;;;;;;;2.90;2.47;;;11.60;65.40;10.70;96691.00;;;;5088708;28;20203;-68
2021/04/18 12:09:13;;;;;;;2.30;2.10;;;11.60;65.90;10.70;96695.00;;;;5099398;28;20198;-68
2021/04/18 12:12:02;;;;;;;3.00;2.37;;;11.50;66.00;10.40;96694.00;;;;5094919;28;20230;-68
2021/04/18 12:14:51;;;;;;;3.10;2.30;;;11.50;65.20;10.40;96699.00;;;;5087216;28;20207;-68
2021/04/18 12:17:40;;;;;;;3.20;2.50;;;11.40;65.30;10.50;96710.00;;;;5101227;28;20211;-68
2021/04/18 12:20:28;;;;;;;2.40;2.20;;;11.30;65.80;10.30;96710.00;;;;5105308;28;20296;-69
2021/04/18 12:23:16;;;;;;;2.97;2.40;;;11.20;65.70;10.30;96703.00;;;;5087493;28;20222;-68
2021/04/18 12:26:04;;;;;;;4.10;2.57;;;11.20;66.40;10.30;96700.00;;;;5087186;28;20199;-68
2021/04/18 12:28:53;;;;;;;2.20;2.00;;;11.10;66.60;10.40;96705.00;;;;5087548;28;20286;-67
2021/04/18 12:31:41;;;;;;;2.20;2.00;;;11.10;67.20;10.40;96707.00;;;;5088102;28;20224;-68
2021/04/18 12:34:30;;;;;;;2.43;1.77;;;11.10;67.40;10.50;96707.00;;;;5097134;28;20213;-68
2021/04/18 12:37:18;;;;;;;3.23;2.33;;;11.10;67.60;10.40;96708.00;;;;5087418;28;20647;-68
2021/04/18 12:40:08;;;;;;;7.20;3.80;;;11.20;67.60;10.40;96697.00;;;;5100955;28;20211;-68
2021/04/18 12:42:57;;;;;;;4.67;3.33;;;11.10;67.20;10.30;96695.00;;;;5088611;28;20224;-69